Time;durP1;ratioP1;P1;durP2;ratioP2;P2;SDS_P1;SDS_P2;PMS_P1;PMS_P2;Temp;Humidity;BMP_temperature;BMP_pressure;BME280_temperature;BME280_humidity;BME280_pressure;Samples;Min_cycle;Max_cycle;Signal;HPM_P1;HPM_P2
2023/09/12 00:01:05;;;;;;;37.30;26.25;;;;;;;19.43;100.00;101131.34;5029609;28;20025;-82
2023/09/12 00:03:30;;;;;;;34.63;26.23;;;;;;;19.37;100.00;101123.06;5025826;28;20105;-83
2023/09/12 00:05:58;;;;;;;32.95;25.17;;;;;;;19.39;100.00;101114.66;5023597;28;20379;-82
2023/09/12 00:08:24;;;;;;;32.38;25.85;;;;;;;19.36;100.00;101115.13;5025522;28;20080;-81
2023/09/12 00:11:00;;;;;;;33.85;25.95;;;;;;;19.28;100.00;101119.13;5020666;28;20044;-82
2023/09/12 00:13:28;;;;;;;34.45;26.27;;;;;;;19.24;100.00;101117.97;5028297;28;20022;-82
2023/09/12 00:15:54;;;;;;;36.03;25.50;;;;;;;19.14;100.00;101095.97;5020884;28;20029;-82
2023/09/12 00:18:19;;;;;;;36.72;26.92;;;;;;;19.05;100.00;101085.47;5029707;28;20095;-82
2023/09/12 00:20:45;;;;;;;36.88;27.33;;;;;;;19.03;100.00;101084.06;5017827;28;20559;-82
2023/09/12 00:23:12;;;;;;;38.90;27.17;;;;;;;18.98;100.00;101089.44;5023921;28;20021;-82
2023/09/12 00:25:38;;;;;;;39.25;27.90;;;;;;;18.89;100.00;101089.78;5022154;28;20096;-82
2023/09/12 00:28:04;;;;;;;41.05;27.98;;;;;;;18.89;100.00;101095.25;5021118;28;20489;-82
2023/09/12 00:30:29;;;;;;;42.42;29.13;;;;;;;18.89;100.00;101108.88;5010826;28;20030;-81
2023/09/12 00:32:54;;;;;;;43.75;29.77;;;;;;;18.87;100.00;101116.50;5011369;28;20037;-82
2023/09/12 00:35:23;;;;;;;47.47;31.17;;;;;;;18.81;100.00;101097.56;5013716;28;20021;-82
2023/09/12 00:37:48;;;;;;;48.42;30.70;;;;;;;18.77;100.00;101106.25;4999149;28;20088;-81
2023/09/12 00:40:14;;;;;;;42.80;28.30;;;;;;;18.98;100.00;101139.34;5019240;28;20053;-81
2023/09/12 00:42:39;;;;;;;41.63;27.23;;;;;;;19.05;100.00;101120.13;5020481;28;20101;-82
2023/09/12 00:45:05;;;;;;;42.85;26.95;;;;;;;18.87;100.00;101121.97;5000924;28;20514;-84
2023/09/12 00:47:32;;;;;;;36.92;26.25;;;;;;;18.96;100.00;101163.34;5022013;28;20073;-86
2023/09/12 00:49:57;;;;;;;32.22;24.20;;;;;;;19.03;100.00;101188.56;5010501;28;20049;-85
2023/09/12 00:52:24;;;;;;;33.45;22.45;;;;;;;18.98;100.00;101196.66;4988920;28;20040;-84
2023/09/12 00:54:50;;;;;;;32.67;21.67;;;;;;;18.75;100.00;101130.22;5022665;28;20026;-85
2023/09/12 00:57:15;;;;;;;31.67;23.60;;;;;;;18.40;100.00;101125.75;5002466;28;20095;-86
2023/09/12 00:59:41;;;;;;;37.17;22.45;;;;;;;18.29;100.00;101132.91;4999933;28;20439;-86
2023/09/12 01:05:43;;;;;;;35.85;22.20;;;;;;;18.27;100.00;101121.41;5000039;28;20137;-83
2023/09/12 01:08:15;;;;;;;37.60;24.13;;;;;;;18.14;100.00;101102.63;4996563;28;20120;-81
2023/09/12 01:11:15;;;;;;;40.30;24.35;;;;;;;18.15;100.00;101101.53;4994194;28;20030;-82
2023/09/12 01:13:53;;;;;;;43.25;24.60;;;;;;;18.14;100.00;101073.47;5007848;28;20025;-82
2023/09/12 01:18:49;;;;;;;36.85;24.33;;;;;;;18.04;100.00;101056.91;4994649;28;20053;-81
2023/09/12 01:25:09;;;;;;;32.22;20.00;;;;;;;18.00;100.00;101064.72;5912407;23;1457855;-82
2023/09/12 01:28:37;;;;;;;30.70;21.08;;;;;;;17.99;100.00;101060.38;4975752;28;20205;-81
2023/09/12 01:31:10;;;;;;;25.25;17.10;;;;;;;17.83;100.00;101061.91;4969330;28;20059;-80
2023/09/12 01:33:35;;;;;;;25.75;17.50;;;;;;;17.83;100.00;101061.91;4976360;28;20062;-80
2023/09/12 01:36:01;;;;;;;25.70;18.13;;;;;;;17.83;100.00;101066.53;4974550;28;20113;-80
2023/09/12 01:38:27;;;;;;;27.75;18.63;;;;;;;17.79;100.00;101066.19;4973544;28;20046;-80
2023/09/12 01:40:53;;;;;;;26.35;18.15;;;;;;;17.75;100.00;101065.00;4973296;28;20023;-81
2023/09/12 01:43:21;;;;;;;29.80;18.73;;;;;;;17.72;100.00;101049.97;4985565;23;20141;-79
2023/09/12 01:45:55;;;;;;;28.90;18.88;;;;;;;17.75;100.00;101047.84;4968546;28;20053;-80
2023/09/12 01:48:23;;;;;;;25.75;17.17;;;;;;;17.71;100.00;101042.88;4977026;28;20032;-79
2023/09/12 01:50:51;;;;;;;24.10;17.60;;;;;;;17.67;100.00;101047.16;4991561;28;20034;-80
2023/09/12 01:53:17;;;;;;;25.05;17.65;;;;;;;17.67;100.00;101058.03;4956833;28;20050;-79
2023/09/12 01:55:43;;;;;;;24.40;17.30;;;;;;;17.62;100.00;101049.78;4965666;28;20039;-80
2023/09/12 01:58:08;;;;;;;24.92;17.70;;;;;;;17.59;100.00;101044.81;4963392;28;20054;-79
2023/09/12 02:00:34;;;;;;;24.85;16.58;;;;;;;17.55;100.00;101040.91;4973744;28;20046;-80
2023/09/12 02:02:59;;;;;;;24.63;16.98;;;;;;;17.56;100.00;101037.13;4984135;28;20023;-79
2023/09/12 02:05:25;;;;;;;25.38;16.58;;;;;;;17.47;100.00;101044.00;4980757;28;20019;-79
2023/09/12 02:07:50;;;;;;;25.67;16.67;;;;;;;17.43;100.00;101041.75;4984373;28;20030;-78
2023/09/12 02:10:16;;;;;;;24.85;16.85;;;;;;;17.41;100.00;101049.31;5011965;28;20041;-79
2023/09/12 02:12:41;;;;;;;25.58;17.35;;;;;;;17.36;100.00;101041.03;5015129;28;20026;-79
2023/09/12 02:15:07;;;;;;;26.42;17.15;;;;;;;17.31;100.00;101031.94;4995391;28;20027;-79
2023/09/12 02:17:32;;;;;;;25.00;17.27;;;;;;;17.28;100.00;101033.25;4986016;28;20030;-79
2023/09/12 02:19:57;;;;;;;26.17;16.63;;;;;;;17.26;100.00;101033.47;4985735;28;20030;-79
2023/09/12 02:22:23;;;;;;;23.85;16.15;;;;;;;17.26;100.00;101030.75;4992160;28;20029;-79
2023/09/12 02:24:49;;;;;;;24.50;16.25;;;;;;;17.25;100.00;101036.44;4983572;28;20041;-79
2023/09/12 02:27:14;;;;;;;24.67;16.27;;;;;;;17.25;100.00;101047.31;4981052;28;20019;-79
2023/09/12 02:29:40;;;;;;;22.55;15.73;;;;;;;17.34;100.00;101043.16;4986025;28;20119;-79
2023/09/12 02:32:06;;;;;;;21.17;14.70;;;;;;;17.42;100.00;101040.09;4986119;28;20291;-79
2023/09/12 02:34:32;;;;;;;21.73;14.45;;;;;;;17.39;100.00;101040.56;4983211;28;20470;-79
2023/09/12 02:36:57;;;;;;;23.10;15.90;;;;;;;17.31;100.00;101038.19;4977238;28;20062;-79
2023/09/12 02:39:26;;;;;;;19.75;15.55;;;;;;;17.46;100.00;101051.31;4986112;28;20038;-79
2023/09/12 02:41:52;;;;;;;20.42;14.15;;;;;;;17.63;100.00;101061.47;4982418;28;20075;-79
2023/09/12 02:44:18;;;;;;;20.55;14.98;;;;;;;17.49;100.00;101055.44;4979042;28;20129;-79
2023/09/12 02:46:43;;;;;;;22.08;15.10;;;;;;;17.36;100.00;101057.38;4976279;28;20486;-79
2023/09/12 02:49:09;;;;;;;20.90;15.88;;;;;;;17.33;100.00;101063.28;4982418;28;20030;-79
2023/09/12 02:51:39;;;;;;;21.48;15.90;;;;;;;17.30;100.00;101063.75;4983976;28;20106;-79
2023/09/12 02:54:06;;;;;;;23.10;16.67;;;;;;;17.26;100.00;101063.41;4964224;28;20058;-78
2023/09/12 02:56:31;;;;;;;26.83;16.60;;;;;;;17.28;100.00;101074.06;4985172;28;20038;-78
2023/09/12 02:58:57;;;;;;;21.75;15.18;;;;;;;17.46;100.00;101080.44;4988284;28;20385;-79
2023/09/12 03:01:22;;;;;;;22.88;15.80;;;;;;;17.49;100.00;101069.06;4982462;28;20558;-78
2023/09/12 03:03:50;;;;;;;20.65;14.88;;;;;;;17.46;100.00;101069.56;4981893;28;20030;-78
2023/09/12 03:06:17;;;;;;;23.75;15.43;;;;;;;17.47;100.00;101066.59;4986515;28;20045;-78
2023/09/12 03:08:43;;;;;;;23.65;16.15;;;;;;;17.45;100.00;101062.47;4982938;28;20391;-78
2023/09/12 03:11:11;;;;;;;24.65;16.05;;;;;;;17.36;100.00;101062.81;4986731;28;20109;-78
2023/09/12 03:13:37;;;;;;;24.55;16.33;;;;;;;17.27;100.00;101056.91;4978578;28;20042;-78
2023/09/12 03:16:02;;;;;;;24.98;17.52;;;;;;;17.23;100.00;101050.25;4980790;28;20795;-78
2023/09/12 03:18:28;;;;;;;24.92;16.65;;;;;;;17.19;100.00;101056.41;4986359;28;20053;-78
2023/09/12 03:20:53;;;;;;;25.80;18.13;;;;;;;17.14;100.00;101051.69;4987386;28;20090;-78
2023/09/12 03:23:21;;;;;;;24.35;16.15;;;;;;;17.13;100.00;101053.56;4985697;28;20031;-78
2023/09/12 03:25:47;;;;;;;22.73;16.00;;;;;;;17.30;100.00;101057.50;4982360;28;20428;-78
2023/09/12 03:28:12;;;;;;;21.73;15.43;;;;;;;17.37;100.00;101048.13;4978402;28;20057;-78
2023/09/12 03:30:38;;;;;;;23.17;16.55;;;;;;;17.27;100.00;101042.47;4975776;28;20035;-78
2023/09/12 03:33:03;;;;;;;22.77;16.23;;;;;;;17.21;100.00;101038.78;4981571;28;20391;-78
2023/09/12 03:35:29;;;;;;;24.17;16.70;;;;;;;17.27;100.00;101037.84;4986996;28;20030;-78
2023/09/12 03:37:54;;;;;;;24.85;16.98;;;;;;;17.31;100.00;101032.75;4986877;28;20566;-78
2023/09/12 03:40:20;;;;;;;26.08;18.02;;;;;;;17.22;100.00;101031.47;4986836;28;20097;-78
2023/09/12 03:42:45;;;;;;;30.08;19.30;;;;;;;17.13;100.00;101034.53;4974114;28;20042;-78
2023/09/12 03:45:11;;;;;;;32.20;19.90;;;;;;;17.08;100.00;101039.03;4985497;28;20031;-78
2023/09/12 03:47:36;;;;;;;31.60;19.25;;;;;;;17.05;100.00;101032.19;4988396;28;20364;-78
2023/09/12 03:50:05;;;;;;;32.35;20.77;;;;;;;17.01;100.00;101032.91;4981914;28;20436;-79
2023/09/12 03:52:31;;;;;;;31.40;20.45;;;;;;;16.95;100.00;101034.63;4984395;28;20144;-78
2023/09/12 03:54:56;;;;;;;36.75;22.30;;;;;;;16.92;100.00;101037.81;4983991;28;20018;-78
2023/09/12 03:57:22;;;;;;;32.53;21.13;;;;;;;16.98;100.00;101028.72;4990379;28;20608;-78
2023/09/12 03:59:47;;;;;;;34.78;21.48;;;;;;;16.88;100.00;101017.59;4989125;28;20085;-77
2023/09/12 04:02:12;;;;;;;37.38;22.63;;;;;;;16.83;100.00;101012.88;4983714;28;20035;-78
2023/09/12 04:04:38;;;;;;;43.95;23.00;;;;;;;16.78;100.00;101018.19;4980568;28;20015;-79
2023/09/12 04:07:04;;;;;;;38.28;22.92;;;;;;;16.75;100.00;101014.03;4983481;28;20080;-77
2023/09/12 04:09:31;;;;;;;38.72;22.70;;;;;;;16.77;100.00;101016.50;4962598;28;20022;-76
2023/09/12 04:11:56;;;;;;;39.03;23.25;;;;;;;16.72;100.00;101009.06;4980845;28;20030;-74
2023/09/12 04:14:22;;;;;;;45.15;24.50;;;;;;;16.68;100.00;101005.16;4985801;28;20129;-76
2023/09/12 04:16:47;;;;;;;42.53;23.80;;;;;;;16.63;100.00;101005.88;4975931;28;20023;-76
2023/09/12 04:19:17;;;;;;;42.05;23.10;;;;;;;16.62;100.00;100987.06;4983546;28;20057;-77
2023/09/12 04:21:42;;;;;;;41.55;23.67;;;;;;;16.60;100.00;100987.31;4980898;28;20096;-78
2023/09/12 04:24:08;;;;;;;41.65;23.60;;;;;;;16.58;100.00;100988.59;4964539;28;20030;-77
2023/09/12 04:26:34;;;;;;;48.97;25.00;;;;;;;16.58;100.00;100996.75;4987053;28;20026;-76
2023/09/12 04:29:00;;;;;;;54.72;25.88;;;;;;;16.58;100.00;100996.75;4981491;28;20145;-77
2023/09/12 04:31:32;;;;;;;54.50;26.65;;;;;;;16.60;100.00;100990.03;4994159;28;20046;-78
2023/09/12 04:34:00;;;;;;;50.28;26.73;;;;;;;16.62;100.00;100981.63;5005811;28;20044;-78
2023/09/12 04:36:28;;;;;;;54.85;25.45;;;;;;;16.66;100.00;100989.09;4984065;28;20375;-77
2023/09/12 04:38:53;;;;;;;44.97;24.65;;;;;;;16.68;100.00;100991.56;4988520;28;20038;-77
2023/09/12 04:41:19;;;;;;;91.70;25.50;;;;;;;16.64;100.00;100993.09;4987891;28;20035;-77
2023/09/12 04:43:44;;;;;;;40.95;23.70;;;;;;;16.66;100.00;100990.97;4994569;28;20041;-77
2023/09/12 04:46:10;;;;;;;45.17;25.30;;;;;;;16.70;100.00;100994.88;4985415;28;20523;-77
2023/09/12 04:48:36;;;;;;;71.55;25.27;;;;;;;16.72;100.00;101009.06;4990377;28;20053;-77
2023/09/12 04:51:01;;;;;;;44.38;25.08;;;;;;;16.69;100.00;101017.69;5000930;28;20680;-76
2023/09/12 04:53:27;;;;;;;42.53;24.20;;;;;;;16.75;100.00;101016.75;5006239;28;20018;-77
2023/09/12 04:56:01;;;;;;;51.65;25.40;;;;;;;16.70;100.00;101022.06;5003545;28;20034;-77
2023/09/12 04:58:26;;;;;;;56.30;25.95;;;;;;;16.72;100.00;101017.22;5001718;28;20026;-77
2023/09/12 05:00:53;;;;;;;52.08;25.58;;;;;;;16.73;100.00;101018.03;5002103;28;20121;-78
2023/09/12 05:03:19;;;;;;;77.00;24.77;;;;;;;16.69;100.00;101023.13;4976564;28;20022;-76
2023/09/12 05:05:48;;;;;;;55.17;26.65;;;;;;;16.72;100.00;101030.81;4996508;28;20493;-78
2023/09/12 05:08:13;;;;;;;52.75;25.83;;;;;;;16.76;100.00;101025.72;4992158;28;20050;-77
2023/09/12 05:10:39;;;;;;;48.42;25.08;;;;;;;16.69;100.00;101031.28;4989259;28;20340;-77
2023/09/12 05:13:05;;;;;;;62.97;25.60;;;;;;;16.72;100.00;101035.41;4991149;28;20035;-77
2023/09/12 05:15:30;;;;;;;45.13;25.30;;;;;;;16.71;100.00;101037.31;4992298;28;20041;-78
2023/09/12 05:17:56;;;;;;;61.95;25.85;;;;;;;16.74;100.00;101038.72;4986066;28;20027;-78
2023/09/12 05:20:21;;;;;;;46.85;26.20;;;;;;;16.79;100.00;101047.03;4986096;28;20375;-79
2023/09/12 05:22:46;;;;;;;41.67;25.00;;;;;;;16.77;100.00;101060.81;4990833;28;20046;-79
2023/09/12 05:25:12;;;;;;;42.90;25.08;;;;;;;16.81;100.00;101055.78;4984031;28;20098;-77
2023/09/12 05:27:37;;;;;;;48.95;24.50;;;;;;;16.82;100.00;101068.31;4982708;28;20449;-77
2023/09/12 05:30:03;;;;;;;46.63;26.02;;;;;;;16.81;100.00;101070.19;4989010;28;20034;-77
2023/09/12 05:32:28;;;;;;;46.78;24.23;;;;;;;16.83;100.00;101069.97;4983167;28;20039;-77
2023/09/12 05:34:54;;;;;;;48.22;25.70;;;;;;;16.80;100.00;101076.69;4947452;28;20031;-78
2023/09/12 05:37:20;;;;;;;56.75;24.95;;;;;;;16.78;100.00;101078.78;4988067;28;20031;-78
2023/09/12 05:39:46;;;;;;;49.60;25.42;;;;;;;16.81;100.00;101088.41;4991570;28;20090;-78
2023/09/12 05:42:12;;;;;;;46.28;25.83;;;;;;;16.80;100.00;101084.03;4993362;28;20038;-78
2023/09/12 05:44:37;;;;;;;42.85;24.70;;;;;;;16.82;100.00;101090.88;4982532;28;20444;-79
2023/09/12 05:47:06;;;;;;;44.42;25.15;;;;;;;16.85;100.00;101091.47;4983079;28;20024;-80
2023/09/12 05:49:34;;;;;;;41.03;25.45;;;;;;;16.88;100.00;101088.28;4991814;28;20124;-80
2023/09/12 05:52:03;;;;;;;45.92;25.52;;;;;;;16.90;100.00;101092.44;4987158;28;20092;-78
2023/09/12 05:54:28;;;;;;;40.22;24.65;;;;;;;16.90;100.00;101088.91;4990669;28;20046;-79
2023/09/12 05:56:54;;;;;;;42.38;24.45;;;;;;;16.93;100.00;101091.16;4992608;28;20018;-80
2023/09/12 05:59:19;;;;;;;44.70;26.23;;;;;;;17.00;100.00;101094.59;4989671;28;20112;-85
2023/09/12 06:01:45;;;;;;;42.72;24.95;;;;;;;17.03;100.00;101102.31;4988471;28;20026;-80
2023/09/12 06:04:10;;;;;;;42.35;26.17;;;;;;;17.02;100.00;101100.63;4987441;28;20376;-82
2023/09/12 06:06:36;;;;;;;45.45;26.23;;;;;;;17.06;100.00;101107.28;4997070;28;20723;-80
2023/09/12 06:09:03;;;;;;;39.30;24.55;;;;;;;17.12;100.00;101108.22;4991008;28;20034;-80
2023/09/12 06:11:28;;;;;;;34.72;23.85;;;;;;;17.11;100.00;101099.25;4988808;28;20074;-82
2023/09/12 06:13:54;;;;;;;37.05;24.42;;;;;;;17.21;100.00;101097.81;4988740;28;20034;-83
2023/09/12 06:16:19;;;;;;;36.55;24.15;;;;;;;17.30;100.00;101099.13;4990262;28;20030;-82
2023/09/12 06:18:44;;;;;;;34.10;22.67;;;;;;;17.42;100.00;101093.69;4989317;28;20027;-81
2023/09/12 06:21:11;;;;;;;35.83;23.83;;;;;;;17.52;100.00;101093.09;4984420;28;20030;-78
2023/09/12 06:23:36;;;;;;;35.42;23.00;;;;;;;17.59;100.00;101099.25;4990661;28;20117;-81
2023/09/12 06:26:02;;;;;;;37.40;23.98;;;;;;;17.63;100.00;101105.88;4981804;28;20045;-80
2023/09/12 06:28:28;;;;;;;29.65;20.73;;;;;;;17.68;100.00;101100.53;4990372;28;20022;-81
2023/09/12 06:30:59;;;;;;;27.20;21.10;;;;;;;17.82;100.00;101108.47;4991724;28;20019;-83
2023/09/12 06:33:25;;;;;;;27.50;21.38;;;;;;;18.03;100.00;101121.47;4962577;28;20038;-77
2023/09/12 06:35:52;;;;;;;33.83;20.27;;;;;;;18.10;100.00;101128.69;4990897;28;20025;-82
2023/09/12 06:38:21;;;;;;;26.27;20.05;;;;;;;18.14;100.00;101124.41;4969972;28;20042;-82
2023/09/12 06:40:48;;;;;;;24.58;19.33;;;;;;;18.16;100.00;101131.25;4989430;28;20084;-85
2023/09/12 06:43:16;;;;;;;24.08;19.02;;;;;;;18.10;100.00;101142.31;4985383;28;20054;-79
2023/09/12 06:45:42;;;;;;;21.92;19.23;;;;;;;18.00;100.00;101149.16;4971153;28;20075;-81
2023/09/12 06:48:08;;;;;;;23.08;19.38;;;;;;;17.91;100.00;101153.31;4971838;28;20023;-81
2023/09/12 06:50:34;;;;;;;25.20;20.23;;;;;;;17.73;100.00;101152.38;4968527;28;20038;-81
2023/09/12 06:52:59;;;;;;;24.48;19.35;;;;;;;17.81;100.00;101153.91;4971519;28;20027;-79
2023/09/12 06:55:25;;;;;;;26.25;20.17;;;;;;;17.70;100.00;101165.66;4969533;28;20491;-78
2023/09/12 06:57:50;;;;;;;23.02;19.65;;;;;;;17.80;100.00;101171.31;4969055;28;20035;-79
2023/09/12 07:00:19;;;;;;;25.92;19.60;;;;;;;17.82;100.00;101169.19;4966229;28;20585;-79
2023/09/12 07:02:44;;;;;;;27.42;20.40;;;;;;;17.71;100.00;101161.88;4967584;28;20546;-80
2023/09/12 07:05:10;;;;;;;27.45;20.73;;;;;;;17.56;100.00;101156.88;4954146;28;20026;-80
2023/09/12 07:07:37;;;;;;;28.00;21.23;;;;;;;17.55;100.00;101161.50;4971808;28;20267;-80
2023/09/12 07:10:03;;;;;;;26.45;20.45;;;;;;;17.55;100.00;101142.47;4969468;28;20073;-80
2023/09/12 07:12:28;;;;;;;28.77;21.42;;;;;;;17.50;100.00;101138.75;4947960;28;20472;-79
2023/09/12 07:14:54;;;;;;;30.33;21.15;;;;;;;17.48;100.00;101140.88;4970589;28;20042;-81
2023/09/12 07:17:22;;;;;;;34.75;23.35;;;;;;;17.49;100.00;101137.09;4971218;28;20093;-81
2023/09/12 07:19:47;;;;;;;33.78;22.65;;;;;;;17.48;100.00;101139.00;4968402;28;20035;-80
2023/09/12 07:22:13;;;;;;;36.80;23.67;;;;;;;17.50;100.00;101136.03;4969776;28;20133;-80
2023/09/12 07:24:38;;;;;;;37.90;24.05;;;;;;;17.46;100.00;101126.72;4970128;28;20038;-80
2023/09/12 07:27:04;;;;;;;38.20;24.73;;;;;;;17.46;100.00;101132.16;4969403;28;20029;-83
2023/09/12 07:29:29;;;;;;;38.25;24.85;;;;;;;17.46;100.00;101129.44;4961224;28;20439;-81
2023/09/12 07:31:54;;;;;;;35.58;23.67;;;;;;;17.48;100.00;101133.56;4970491;28;20037;-80
2023/09/12 07:34:23;;;;;;;35.65;24.23;;;;;;;17.49;100.00;101127.06;4969573;28;20026;-79
2023/09/12 07:36:50;;;;;;;34.13;23.90;;;;;;;17.45;100.00;101119.63;4965686;28;20031;-79
2023/09/12 07:39:16;;;;;;;34.80;23.90;;;;;;;17.48;100.00;101124.56;4968654;28;20074;-80
2023/09/12 07:41:41;;;;;;;34.85;23.15;;;;;;;17.46;100.00;101121.28;4969188;28;20053;-80
2023/09/12 07:44:10;;;;;;;36.17;23.85;;;;;;;17.48;100.00;101119.13;4986336;28;20466;-79
2023/09/12 07:46:36;;;;;;;38.47;23.40;;;;;;;17.52;100.00;101115.72;4982170;28;20027;-81
2023/09/12 07:49:01;;;;;;;35.95;23.85;;;;;;;17.55;100.00;101115.25;4984777;28;20081;-80
2023/09/12 07:51:27;;;;;;;35.30;23.17;;;;;;;17.62;100.00;101112.41;4987789;28;20022;-80
2023/09/12 07:53:52;;;;;;;29.38;21.75;;;;;;;17.67;100.00;101101.59;4975057;28;20356;-80
2023/09/12 07:56:17;;;;;;;31.98;22.95;;;;;;;17.76;100.00;101104.78;4979255;28;20105;-81
2023/09/12 07:58:43;;;;;;;33.70;22.90;;;;;;;17.86;100.00;101105.00;4982724;28;20033;-80
2023/09/12 08:01:11;;;;;;;30.70;23.10;;;;;;;17.99;100.00;101114.00;4984091;28;20041;-78
2023/09/12 08:03:36;;;;;;;31.13;22.98;;;;;;;18.04;100.00;101105.97;4984950;28;20221;-79
2023/09/12 08:06:02;;;;;;;34.58;24.08;;;;;;;18.22;100.00;101104.13;4985740;28;20049;-79
2023/09/12 08:08:28;;;;;;;29.90;22.65;;;;;;;18.48;100.00;101097.28;4977642;28;20475;-79
2023/09/12 08:10:54;;;;;;;31.70;23.75;;;;;;;18.63;100.00;101096.69;4979144;28;20022;-79
2023/09/12 08:13:19;;;;;;;33.08;22.50;;;;;;;18.78;100.00;101109.78;4989507;28;20036;-79
2023/09/12 08:15:44;;;;;;;33.55;24.25;;;;;;;18.94;100.00;101114.47;4985492;28;20038;-79
2023/09/12 08:18:10;;;;;;;31.00;23.52;;;;;;;19.31;100.00;101107.72;4983648;28;20432;-79
2023/09/12 08:20:35;;;;;;;32.17;24.52;;;;;;;19.48;100.00;101106.84;4987488;28;20026;-80
2023/09/12 08:23:01;;;;;;;30.33;24.75;;;;;;;19.88;100.00;101116.72;4980940;28;20139;-79
2023/09/12 08:25:27;;;;;;;32.30;24.00;;;;;;;19.86;100.00;101129.75;4986175;28;20081;-80
2023/09/12 08:27:52;;;;;;;32.92;24.02;;;;;;;20.07;100.00;101130.91;4980731;28;20453;-79
2023/09/12 08:30:17;;;;;;;35.30;26.75;;;;;;;20.14;100.00;101131.53;4988413;28;20088;-79
2023/09/12 08:32:46;;;;;;;36.10;27.05;;;;;;;20.15;100.00;101116.78;4989189;28;20026;-80
2023/09/12 08:35:12;;;;;;;34.55;25.70;;;;;;;20.08;100.00;101123.50;4983909;28;20050;-79
2023/09/12 08:37:39;;;;;;;37.55;26.70;;;;;;;20.26;100.00;101122.38;4987206;28;20081;-80
2023/09/12 08:40:07;;;;;;;34.47;25.63;;;;;;;20.53;100.00;101116.09;4986152;28;20089;-79
2023/09/12 08:42:33;;;;;;;36.47;27.15;;;;;;;20.75;100.00;101111.44;4986195;28;20067;-81
2023/09/12 08:44:58;;;;;;;37.40;28.35;;;;;;;21.35;99.59;101105.06;4953249;28;20014;-80
2023/09/12 08:47:23;;;;;;;38.38;27.35;;;;;;;21.55;95.37;101114.50;4985027;28;20022;-78
2023/09/12 08:49:52;;;;;;;38.70;29.00;;;;;;;21.18;93.47;101122.47;4954102;28;20494;-78
2023/09/12 08:52:17;;;;;;;37.38;28.17;;;;;;;21.40;93.97;101127.00;4970633;28;20034;-81
2023/09/12 08:54:43;;;;;;;41.88;29.75;;;;;;;21.39;92.64;101130.00;4981607;28;20089;-81
2023/09/12 08:57:08;;;;;;;43.22;29.70;;;;;;;21.29;97.98;101134.31;4965758;28;20027;-80
2023/09/12 08:59:34;;;;;;;40.67;29.30;;;;;;;21.04;95.66;101137.69;4944398;28;20046;-81
2023/09/12 09:01:59;;;;;;;42.60;29.95;;;;;;;21.41;96.50;101127.81;4983977;28;20333;-80
2023/09/12 09:04:26;;;;;;;36.38;26.70;;;;;;;21.77;94.13;101139.03;5074485;23;20054;-79
2023/09/12 09:06:52;;;;;;;42.00;29.85;;;;;;;22.03;92.98;101147.41;5138378;23;20064;-77
2023/09/12 09:09:20;;;;;;;35.75;27.33;;;;;;;22.26;95.10;101151.59;5012203;28;20029;-77
2023/09/12 09:11:46;;;;;;;42.00;29.38;;;;;;;22.19;92.15;101151.84;5007496;28;20298;-78
2023/09/12 09:14:11;;;;;;;39.15;28.63;;;;;;;21.92;89.97;101168.44;5016480;28;20025;-78
2023/09/12 09:16:37;;;;;;;36.60;27.88;;;;;;;21.98;89.86;101166.56;5031263;28;20049;-78
2023/09/12 09:19:10;;;;;;;40.30;29.73;;;;;;;21.92;89.53;101172.00;5003912;28;20036;-78
2023/09/12 09:21:40;;;;;;;37.65;29.38;;;;;;;21.58;93.71;101158.63;5022342;28;20022;-78
2023/09/12 09:24:15;;;;;;;40.67;29.42;;;;;;;21.54;94.64;101173.13;5027713;28;20034;-79
2023/09/12 09:26:47;;;;;;;40.30;29.80;;;;;;;21.59;92.25;101171.22;5026037;28;20034;-77
2023/09/12 09:29:19;;;;;;;41.53;28.50;;;;;;;22.16;90.33;101173.47;5020172;28;20049;-76
2023/09/12 09:31:49;;;;;;;38.88;27.67;;;;;;;22.89;80.71;101188.28;5025634;28;20033;-75
2023/09/12 09:34:15;;;;;;;37.97;28.15;;;;;;;22.56;84.14;101178.34;5034070;28;20117;-77
2023/09/12 09:36:46;;;;;;;34.70;25.10;;;;;;;22.94;83.98;101180.06;5027415;28;20037;-76
2023/09/12 09:39:12;;;;;;;31.70;25.30;;;;;;;23.48;79.60;101175.97;5030283;28;20109;-77
2023/09/12 09:41:38;;;;;;;39.30;28.30;;;;;;;23.58;77.94;101180.63;5014401;28;20041;-78
2023/09/12 09:44:05;;;;;;;37.13;27.38;;;;;;;23.64;79.47;101179.53;4998985;28;20076;-76
2023/09/12 09:46:31;;;;;;;34.80;25.88;;;;;;;23.58;80.39;101175.94;5030900;28;20057;-78
2023/09/12 09:48:58;;;;;;;35.33;25.50;;;;;;;24.43;74.12;101170.78;5011638;28;20427;-77
2023/09/12 09:51:25;;;;;;;33.17;26.15;;;;;;;24.46;73.33;101178.44;5034516;28;20022;-77
2023/09/12 09:53:58;;;;;;;29.73;24.08;;;;;;;24.52;73.00;101190.28;5022431;28;20119;-77
2023/09/12 09:56:23;;;;;;;33.20;22.85;;;;;;;25.10;71.58;101197.06;5037005;28;20037;-78
2023/09/12 09:58:54;;;;;;;31.23;24.77;;;;;;;26.02;64.66;101200.94;5025471;28;20025;-77
2023/09/12 10:01:27;;;;;;;28.77;23.73;;;;;;;25.85;65.92;101203.34;5027957;28;20017;-77
2023/09/12 10:03:53;;;;;;;30.83;24.23;;;;;;;25.14;68.58;101203.66;5031701;28;20033;-78
2023/09/12 10:06:18;;;;;;;32.97;25.05;;;;;;;24.64;70.85;101200.91;4982490;28;20042;-79
2023/09/12 10:08:46;;;;;;;34.38;25.92;;;;;;;24.58;74.21;101202.88;5005001;28;20196;-80
2023/09/12 10:11:27;;;;;;;32.40;24.42;;;;;;;25.12;70.41;101211.38;5005260;28;20047;-79
2023/09/12 10:13:54;;;;;;;29.05;22.35;;;;;;;26.76;63.09;101213.53;4983999;28;20223;-79
2023/09/12 10:16:24;;;;;;;24.60;19.92;;;;;;;27.77;61.25;101224.41;5007970;28;20053;-79
2023/09/12 10:18:57;;;;;;;30.80;23.20;;;;;;;27.43;59.65;101214.47;5007355;28;20358;-79
2023/09/12 10:21:27;;;;;;;29.95;24.38;;;;;;;26.46;62.34;101221.13;5003865;28;20109;-79
2023/09/12 10:23:53;;;;;;;30.77;23.98;;;;;;;25.34;66.78;101207.34;5014614;28;20104;-79
2023/09/12 10:26:55;;;;;;;30.42;24.23;;;;;;;25.19;70.61;101194.53;5008627;28;20202;-80
2023/09/12 10:29:21;;;;;;;26.67;21.17;;;;;;;26.97;60.26;101184.81;5001616;28;20041;-80
2023/09/12 10:31:47;;;;;;;29.75;23.52;;;;;;;26.98;59.51;101183.69;5001535;28;20033;-80
2023/09/12 10:34:14;;;;;;;31.60;24.88;;;;;;;27.17;62.51;101180.91;5004223;28;20026;-79
2023/09/12 10:36:42;;;;;;;29.38;24.50;;;;;;;27.80;59.01;101182.25;5096053;23;20066;-79
2023/09/12 10:39:11;;;;;;;26.95;22.15;;;;;;;27.80;58.40;101178.69;4990450;28;20372;-80
2023/09/12 10:41:37;;;;;;;20.13;17.38;;;;;;;29.09;52.95;101175.94;4985902;28;20022;-79
2023/09/12 10:44:08;;;;;;;23.77;20.80;;;;;;;27.59;55.39;101178.28;4988821;28;20475;-79
2023/09/12 10:46:33;;;;;;;23.83;20.40;;;;;;;27.95;55.78;101181.16;4974791;28;20426;-79
2023/09/12 10:48:59;;;;;;;22.98;19.08;;;;;;;28.18;55.36;101184.06;4990718;28;20096;-79
2023/09/12 10:51:27;;;;;;;19.55;16.40;;;;;;;29.23;52.68;101175.81;4990865;28;20498;-79
2023/09/12 10:53:53;;;;;;;12.57;11.00;;;;;;;31.03;47.19;101173.75;4995576;28;20107;-80
2023/09/12 10:56:19;;;;;;;14.85;13.25;;;;;;;32.43;41.54;101178.81;4989575;28;20418;-80
2023/09/12 10:59:06;;;;;;;19.63;15.20;;;;;;;30.67;44.97;101171.00;4991834;28;20026;-80
2023/09/12 11:01:37;;;;;;;18.42;16.52;;;;;;;28.44;52.70;101164.94;4993280;28;20034;-80
2023/09/12 11:04:30;;;;;;;20.95;17.65;;;;;;;28.01;53.66;101172.75;4990970;28;20027;-80
2023/09/12 11:06:56;;;;;;;20.20;16.27;;;;;;;28.40;53.68;101169.44;4985827;28;20066;-81
2023/09/12 11:09:24;;;;;;;17.02;15.20;;;;;;;28.51;53.28;101172.81;4991889;28;20071;-78
2023/09/12 11:11:58;;;;;;;19.38;15.75;;;;;;;29.39;49.46;101176.28;4989540;28;20109;-79
2023/09/12 11:14:25;;;;;;;16.83;13.82;;;;;;;30.38;46.92;101171.59;4990181;28;20127;-77